createdAt,value
2022-08-06T00:00:26.842Z,18.02
2022-08-06T00:02:54.913Z,18.03
2022-08-06T00:05:29.917Z,18.05
2022-08-06T00:08:02.538Z,18.05
2022-08-06T00:10:30.623Z,18.03
2022-08-06T00:13:00.213Z,18.01
2022-08-06T00:16:06.915Z,18.01
2022-08-06T00:18:15.116Z,18.01
2022-08-06T00:20:42.774Z,18.02
2022-08-06T00:23:12.551Z,18.03
2022-08-06T00:25:44.842Z,18.02
2022-08-06T00:28:18.741Z,18.00
2022-08-06T00:30:48.016Z,17.95
2022-08-06T00:33:15.827Z,17.92
2022-08-06T00:35:45.467Z,17.90
2022-08-06T00:38:14.701Z,17.89
2022-08-06T00:40:50.267Z,17.86
2022-08-06T00:43:25.553Z,17.89
2022-08-06T00:45:52.415Z,17.94
2022-08-06T00:48:33.127Z,18.01
2022-08-06T00:51:11.630Z,18.05
2022-08-06T00:53:48.461Z,18.06
2022-08-06T00:56:18.666Z,18.09
2022-08-06T00:58:54.105Z,18.14
2022-08-06T01:01:33.049Z,18.20
2022-08-06T01:04:17.647Z,18.22
2022-08-06T01:06:55.944Z,18.25
2022-08-06T01:09:25.496Z,18.30
2022-08-06T01:11:52.388Z,18.30
2022-08-06T01:14:38.942Z,18.28
2022-08-06T01:17:23.558Z,18.22
2022-08-06T01:21:56.718Z,18.25
2022-08-06T01:22:40.903Z,18.27
2022-08-06T01:25:19.981Z,18.26
2022-08-06T01:27:59.455Z,18.22
2022-08-06T01:30:33.410Z,18.19
2022-08-06T01:33:10.476Z,18.14
2022-08-06T01:35:55.401Z,18.10
2022-08-06T01:38:31.170Z,18.05
2022-08-06T01:41:03.399Z,18.01
2022-08-06T01:44:07.207Z,17.95
2022-08-06T01:46:20.937Z,17.90
2022-08-06T01:48:52.085Z,17.87
2022-08-06T01:52:15.046Z,17.81
2022-08-06T01:54:11.692Z,17.76
2022-08-06T01:56:56.911Z,17.73
2022-08-06T01:59:38.215Z,17.68
2022-08-06T02:02:09.181Z,17.63
2022-08-06T02:04:41.373Z,17.59
2022-08-06T02:07:51.483Z,17.58
2022-08-06T02:10:01.447Z,17.53
2022-08-06T02:12:31.065Z,17.48
2022-08-06T02:15:02.124Z,17.46
2022-08-06T02:18:04.414Z,17.44
2022-08-06T02:20:36.899Z,17.43
2022-08-06T02:23:09.559Z,17.39
2022-08-06T02:25:41.277Z,17.37
2022-08-06T02:28:12.212Z,17.34
2022-08-06T02:30:54.806Z,17.30
2022-08-06T02:33:32.383Z,17.25
2022-08-06T02:36:20.531Z,17.22
2022-08-06T02:39:04.126Z,17.19
2022-08-06T02:41:38.500Z,17.19
2022-08-06T02:44:10.869Z,17.20
2022-08-06T02:46:44.683Z,17.17
2022-08-06T02:49:25.458Z,17.14
2022-08-06T02:52:12.645Z,17.12
2022-08-06T02:54:58.603Z,17.10
2022-08-06T02:57:48.553Z,17.12
2022-08-06T03:00:19.750Z,17.14
2022-08-06T03:02:49.389Z,17.17
2022-08-06T03:05:56.014Z,17.21
2022-08-06T03:08:10.717Z,17.28
2022-08-06T03:10:38.871Z,17.38
2022-08-06T03:13:10.960Z,17.47
2022-08-06T03:15:59.651Z,17.57
2022-08-06T03:18:29.216Z,17.69
2022-08-06T03:20:57.540Z,17.79
2022-08-06T03:23:26.743Z,17.88
2022-08-06T03:25:55.326Z,17.99
2022-08-06T03:28:23.663Z,18.09
2022-08-06T03:30:55.455Z,18.15
2022-08-06T03:33:52.898Z,18.21
2022-08-06T03:36:12.771Z,18.29
2022-08-06T03:38:54.617Z,18.37
2022-08-06T03:41:28.942Z,18.47
2022-08-06T03:44:04.409Z,18.56
2022-08-06T03:46:38.703Z,18.63
2022-08-06T03:49:09.976Z,18.71
2022-08-06T03:51:52.457Z,18.77
2022-08-06T03:54:33.448Z,18.83
2022-08-06T03:57:08.069Z,18.92
2022-08-06T03:59:43.777Z,19.02
2022-08-06T04:02:36.717Z,19.14
2022-08-06T04:05:17.088Z,19.25
2022-08-06T04:07:53.801Z,19.35
2022-08-06T04:10:34.634Z,19.43
2022-08-06T04:13:35.548Z,19.52
2022-08-06T04:15:55.845Z,19.61
2022-08-06T04:18:27.260Z,19.70
2022-08-06T04:20:59.598Z,19.80
2022-08-06T04:23:46.391Z,19.90
2022-08-06T04:26:15.592Z,19.99
2022-08-06T04:28:52.865Z,20.08
2022-08-06T04:32:11.746Z,20.19
2022-08-06T04:34:20.587Z,20.33
2022-08-06T04:36:53.901Z,20.46
2022-08-06T04:39:24.936Z,20.62
2022-08-06T04:41:56.652Z,20.75
2022-08-06T04:44:29.204Z,20.89
2022-08-06T04:46:58.670Z,21.06
2022-08-06T04:50:01.345Z,21.22
2022-08-06T04:52:35.976Z,21.40
2022-08-06T04:55:24.001Z,21.59
2022-08-06T04:57:56.951Z,21.80
2022-08-06T05:00:59.221Z,22.07
2022-08-06T05:03:52.958Z,22.40
2022-08-06T05:06:12.878Z,22.67
2022-08-06T05:08:44.625Z,22.90
2022-08-06T05:11:25.563Z,23.16
2022-08-06T05:13:57.616Z,23.40
2022-08-06T05:16:27.300Z,23.61
2022-08-06T05:19:20.149Z,23.81
2022-08-06T05:22:10.443Z,24.08
2022-08-06T05:24:39.505Z,24.29
2022-08-06T05:27:25.620Z,24.47
2022-08-06T05:30:13.121Z,24.53
2022-08-06T05:32:43.778Z,24.52
2022-08-06T05:35:18.005Z,24.54
2022-08-06T05:38:01.513Z,24.56
2022-08-06T05:40:53.398Z,24.54
2022-08-06T05:43:22.754Z,24.47
2022-08-06T05:45:54.727Z,24.37
2022-08-06T05:48:28.928Z,24.24
2022-08-06T05:51:06.708Z,24.13
2022-08-06T05:54:03.752Z,24.04
2022-08-06T05:56:38.306Z,24.01
2022-08-06T05:59:37.374Z,23.99
2022-08-06T06:02:07.150Z,23.96
2022-08-06T06:04:34.748Z,23.92
2022-08-06T06:07:04.848Z,23.94
2022-08-06T06:10:02.923Z,23.96
2022-08-06T06:12:31.709Z,24.00
2022-08-06T06:15:03.754Z,24.03
2022-08-06T06:18:12.524Z,24.05
2022-08-06T06:21:32.044Z,24.06
2022-08-06T06:24:08.036Z,24.02
2022-08-06T06:26:39.426Z,23.96
2022-08-06T06:30:02.749Z,23.94
2022-08-06T06:32:30.838Z,24.01
2022-08-06T06:35:07.091Z,24.05
2022-08-06T06:37:51.976Z,24.01
2022-08-06T06:40:29.357Z,23.93
2022-08-06T06:43:07.114Z,23.90
2022-08-06T06:46:07.377Z,23.86
2022-08-06T06:48:39.134Z,23.81
2022-08-06T06:51:40.807Z,23.83
2022-08-06T06:54:07.234Z,23.88
2022-08-06T06:56:43.173Z,23.94
2022-08-06T06:59:17.837Z,24.04
2022-08-06T07:01:50.943Z,24.17
2022-08-06T07:04:26.798Z,24.29
2022-08-06T07:06:57.645Z,24.37
2022-08-06T07:09:40.221Z,24.39
2022-08-06T07:12:19.843Z,24.42
2022-08-06T07:14:58.613Z,24.45
2022-08-06T07:17:45.548Z,24.56
2022-08-06T07:20:25.902Z,24.60
2022-08-06T07:24:02.986Z,24.66
2022-08-06T07:25:54.267Z,24.74
2022-08-06T07:28:27.800Z,24.78
2022-08-06T07:31:03.511Z,24.79
2022-08-06T07:33:42.617Z,24.82
2022-08-06T07:36:24.639Z,24.84
2022-08-06T07:38:59.824Z,24.87
2022-08-06T07:44:17.819Z,24.86
2022-08-06T07:46:52.237Z,24.82
2022-08-06T07:49:59.202Z,24.74
2022-08-06T07:52:18.266Z,24.60
2022-08-06T07:54:46.775Z,24.49
2022-08-06T07:57:15.333Z,24.37
2022-08-06T07:59:51.142Z,24.28
2022-08-06T08:02:29.663Z,24.21
2022-08-06T08:05:14.249Z,24.15
2022-08-06T08:07:57.163Z,24.09
2022-08-06T08:10:28.838Z,24.02
2022-08-06T08:12:57.708Z,23.93
2022-08-06T08:15:32.443Z,23.81
2022-08-06T08:18:01.714Z,23.71
2022-08-06T08:20:34.149Z,23.61
2022-08-06T08:23:05.609Z,23.50
2022-08-06T08:25:42.999Z,23.41
2022-08-06T08:28:15.093Z,23.32
2022-08-06T08:30:47.876Z,23.22
2022-08-06T08:33:18.552Z,23.14
2022-08-06T08:35:49.759Z,23.00
2022-08-06T08:38:22.593Z,22.89
2022-08-06T08:40:56.379Z,22.76
2022-08-06T08:43:58.535Z,22.67
2022-08-06T08:46:30.532Z,22.59
2022-08-06T08:49:01.833Z,22.52
2022-08-06T08:51:30.861Z,22.42
2022-08-06T08:54:11.842Z,22.35
2022-08-06T08:57:06.118Z,22.29
2022-08-06T08:59:59.630Z,22.29
2022-08-06T09:02:24.391Z,22.26
2022-08-06T09:04:53.088Z,22.22
2022-08-06T09:07:25.928Z,22.14
2022-08-06T09:10:06.388Z,22.06
2022-08-06T09:12:45.428Z,21.99
2022-08-06T09:15:17.556Z,21.89
2022-08-06T09:18:11.669Z,21.80
2022-08-06T09:20:35.637Z,21.69
2022-08-06T09:23:07.400Z,21.61
2022-08-06T09:25:49.315Z,21.51
2022-08-06T09:28:39.685Z,21.45
2022-08-06T09:31:22.171Z,21.38
2022-08-06T09:34:30.196Z,21.32
2022-08-06T09:36:52.217Z,21.28
2022-08-06T09:39:46.314Z,21.28
2022-08-06T09:42:39.211Z,21.27
2022-08-06T09:45:16.605Z,21.27
2022-08-06T09:47:57.667Z,21.24
2022-08-06T09:50:43.496Z,21.19
2022-08-06T09:53:14.962Z,21.16
2022-08-06T09:55:42.601Z,21.07
2022-08-06T09:58:10.206Z,21.03
2022-08-06T10:00:38.987Z,21.05
2022-08-06T10:04:04.976Z,21.04
2022-08-06T10:06:14.752Z,21.06
2022-08-06T10:08:46.058Z,21.02
2022-08-06T10:11:41.494Z,20.96
2022-08-06T10:14:33.839Z,20.93
2022-08-06T10:17:10.541Z,20.79
2022-08-06T10:19:39.472Z,20.71
2022-08-06T10:22:21.555Z,20.63
2022-08-06T10:24:57.354Z,20.58
2022-08-06T10:27:38.040Z,20.52
2022-08-06T10:30:09.488Z,20.44
2022-08-06T10:32:42.338Z,20.38
2022-08-06T10:35:16.112Z,20.35
2022-08-06T10:37:50.756Z,20.28
2022-08-06T10:40:30.431Z,20.16
2022-08-06T10:43:03.583Z,20.05
2022-08-06T10:45:48.614Z,19.92
2022-08-06T10:49:01.552Z,19.81
2022-08-06T10:51:07.613Z,19.75
2022-08-06T10:54:01.725Z,19.67
2022-08-06T10:56:28.260Z,19.60
2022-08-06T10:59:02.215Z,19.53
2022-08-06T11:01:43.949Z,19.47
2022-08-06T11:04:31.453Z,19.43
2022-08-06T11:08:08.714Z,19.40
2022-08-06T11:10:26.920Z,19.39
2022-08-06T11:13:00.043Z,19.42
2022-08-06T11:15:29.319Z,19.43
2022-08-06T11:18:12.388Z,19.39
2022-08-06T11:20:47.111Z,19.40
2022-08-06T11:23:26.219Z,19.41
2022-08-06T11:26:04.964Z,19.40
2022-08-06T11:28:32.677Z,19.38
2022-08-06T11:31:03.370Z,19.41
2022-08-06T11:33:38.219Z,19.40
2022-08-06T11:36:09.701Z,19.41
2022-08-06T11:38:50.676Z,19.39
2022-08-06T11:41:44.639Z,19.35
2022-08-06T11:44:16.971Z,19.31
2022-08-06T11:46:48.452Z,19.29
2022-08-06T11:49:21.952Z,19.25
2022-08-06T11:51:52.658Z,19.20
2022-08-06T11:54:29.036Z,19.14
2022-08-06T11:57:06.001Z,19.10
2022-08-06T12:00:02.762Z,19.05
2022-08-06T12:02:44.284Z,19.00
2022-08-06T12:05:17.315Z,18.99
2022-08-06T12:07:52.297Z,18.98
2022-08-06T12:10:29.228Z,18.97
2022-08-06T12:12:57.422Z,18.92
2022-08-06T12:15:59.666Z,18.86
2022-08-06T12:18:19.236Z,18.79
2022-08-06T12:20:54.512Z,18.81
2022-08-06T12:23:54.170Z,18.82
2022-08-06T12:26:12.789Z,18.81
2022-08-06T12:28:39.774Z,18.81
2022-08-06T12:31:36.514Z,18.76
2022-08-06T12:33:56.042Z,18.76
2022-08-06T12:36:31.753Z,18.76
2022-08-06T12:39:01.187Z,18.77
2022-08-06T12:41:46.113Z,18.76
2022-08-06T12:44:28.509Z,18.78
2022-08-06T12:47:18.659Z,18.77
2022-08-06T12:50:22.744Z,18.77
2022-08-06T12:53:13.282Z,18.76
2022-08-06T12:55:56.487Z,18.73
2022-08-06T12:58:42.270Z,18.73
2022-08-06T13:01:16.263Z,18.69
2022-08-06T13:04:08.944Z,18.65
2022-08-06T13:06:38.690Z,18.62
2022-08-06T13:09:08.479Z,18.62
2022-08-06T13:11:37.517Z,18.63
2022-08-06T13:14:17.040Z,18.65
2022-08-06T13:16:56.660Z,18.64
2022-08-06T13:19:33.191Z,18.61
2022-08-06T13:22:11.387Z,18.61
2022-08-06T13:25:01.695Z,18.58
2022-08-06T13:27:34.891Z,18.59
2022-08-06T13:30:32.048Z,18.62
2022-08-06T13:32:53.877Z,18.69
2022-08-06T13:35:30.383Z,18.72
2022-08-06T13:38:10.414Z,18.79
2022-08-06T13:40:46.475Z,18.85
2022-08-06T13:43:39.603Z,18.93
2022-08-06T13:46:11.613Z,19.00
2022-08-06T13:48:49.032Z,19.03
2022-08-06T13:51:22.176Z,19.04
2022-08-06T13:53:58.133Z,19.04
2022-08-06T13:56:28.527Z,19.05
2022-08-06T13:59:02.475Z,19.01
2022-08-06T14:01:44.832Z,19.04
2022-08-06T14:04:14.561Z,19.03
2022-08-06T14:06:44.778Z,19.03
2022-08-06T14:09:19.785Z,19.00
2022-08-06T14:11:54.165Z,19.01
2022-08-06T14:14:24.614Z,19.07
2022-08-06T14:16:53.589Z,19.13
2022-08-06T14:20:17.422Z,19.19
2022-08-06T14:22:08.489Z,19.23
2022-08-06T14:24:39.378Z,19.27
2022-08-06T14:27:15.538Z,19.33
2022-08-06T14:30:27.968Z,19.38
2022-08-06T14:32:40.595Z,19.43
2022-08-06T14:35:08.614Z,19.44
2022-08-06T14:37:50.587Z,19.46
2022-08-06T14:40:59.693Z,19.44
2022-08-06T14:43:55.969Z,19.42
2022-08-06T14:46:27.017Z,19.39
2022-08-06T14:48:58.223Z,19.38
2022-08-06T14:51:37.736Z,19.41
2022-08-06T14:54:14.632Z,19.52
2022-08-06T14:56:45.251Z,19.60
2022-08-06T14:59:19.617Z,19.69
2022-08-06T15:01:47.297Z,19.77
2022-08-06T15:04:23.836Z,19.81
2022-08-06T15:06:59.226Z,19.89
2022-08-06T15:10:04.576Z,19.94
2022-08-06T15:12:25.935Z,20.01
2022-08-06T15:15:05.217Z,20.09
2022-08-06T15:18:04.051Z,20.16
2022-08-06T15:20:25.351Z,20.22
2022-08-06T15:22:55.920Z,20.31
2022-08-06T15:26:00.419Z,20.42
2022-08-06T15:28:12.234Z,20.54
2022-08-06T15:30:39.518Z,20.67
2022-08-06T15:33:08.096Z,20.76
2022-08-06T15:35:43.510Z,20.82
2022-08-06T15:38:24.647Z,20.90
2022-08-06T15:40:51.492Z,20.97
2022-08-06T15:43:20.275Z,21.01
2022-08-06T15:45:55.252Z,21.07
2022-08-06T15:48:29.300Z,21.06
2022-08-06T15:51:28.809Z,21.04
2022-08-06T15:53:54.787Z,21.01
2022-08-06T15:56:39.398Z,21.02
2022-08-06T15:59:15.228Z,21.01
2022-08-06T16:02:01.338Z,20.99
2022-08-06T16:04:35.354Z,20.99
2022-08-06T16:07:06.006Z,20.98
2022-08-06T16:09:56.219Z,20.96
2022-08-06T16:12:22.686Z,20.96
2022-08-06T16:14:57.195Z,20.96
2022-08-06T16:17:33.345Z,20.98
2022-08-06T16:20:21.095Z,21.00
2022-08-06T16:22:52.473Z,20.97
2022-08-06T16:25:22.962Z,20.94
2022-08-06T16:27:51.966Z,20.93
2022-08-06T16:30:20.144Z,20.89
2022-08-06T16:32:49.020Z,20.86
2022-08-06T16:35:17.842Z,20.86
2022-08-06T16:37:51.822Z,20.87
2022-08-06T16:40:20.136Z,20.87
2022-08-06T16:42:49.311Z,20.88
2022-08-06T16:45:17.401Z,20.84
2022-08-06T16:48:20.212Z,20.87
2022-08-06T16:54:13.914Z,20.79
2022-08-06T16:56:07.924Z,20.72
2022-08-06T16:58:43.520Z,20.64
2022-08-06T17:02:13.929Z,20.57
2022-08-06T17:04:00.513Z,20.52
2022-08-06T17:06:31.522Z,20.47
2022-08-06T17:09:16.497Z,20.42
2022-08-06T17:11:52.190Z,20.36
2022-08-06T17:14:28.083Z,20.30
2022-08-06T17:16:55.152Z,20.22
2022-08-06T17:19:22.368Z,20.14
2022-08-06T17:21:52.971Z,20.06
2022-08-06T17:24:37.054Z,19.99
2022-08-06T17:27:08.779Z,19.94
2022-08-06T17:29:46.762Z,19.89
2022-08-06T17:32:22.771Z,19.85
2022-08-06T17:34:59.641Z,19.82
2022-08-06T17:37:43.394Z,19.78
2022-08-06T17:40:19.097Z,19.72
2022-08-06T17:42:55.554Z,19.68
2022-08-06T17:45:22.807Z,19.61
2022-08-06T17:47:52.527Z,19.53
2022-08-06T17:50:20.719Z,19.49
2022-08-06T17:52:48.071Z,19.45
2022-08-06T17:55:17.227Z,19.42
2022-08-06T17:58:03.726Z,19.40
2022-08-06T18:00:37.057Z,19.40
2022-08-06T18:03:05.143Z,19.37
2022-08-06T18:05:36.232Z,19.35
2022-08-06T18:08:15.222Z,19.30
2022-08-06T18:10:42.862Z,19.26
2022-08-06T18:13:12.091Z,19.24
2022-08-06T18:15:40.995Z,19.23
2022-08-06T18:18:15.329Z,19.22
2022-08-06T18:20:46.341Z,19.21
2022-08-06T18:23:20.756Z,19.19
2022-08-06T18:25:56.033Z,19.18
2022-08-06T18:28:36.453Z,19.13
2022-08-06T18:31:09.769Z,19.09
2022-08-06T18:33:46.432Z,19.08
2022-08-06T18:36:33.212Z,19.08
2022-08-06T18:39:01.377Z,19.06
2022-08-06T18:41:28.312Z,19.05
2022-08-06T18:44:00.018Z,19.03
2022-08-06T18:47:02.611Z,19.02
2022-08-06T18:49:20.418Z,18.99
2022-08-06T18:51:48.003Z,18.93
2022-08-06T18:54:23.102Z,18.90
2022-08-06T18:56:52.499Z,18.87
2022-08-06T18:59:23.139Z,18.87
2022-08-06T19:01:54.884Z,18.87
2022-08-06T19:04:28.501Z,18.86
2022-08-06T19:07:00.213Z,18.85
2022-08-06T19:09:33.640Z,18.83
2022-08-06T19:12:12.376Z,18.80
2022-08-06T19:14:43.767Z,18.78
2022-08-06T19:17:11.958Z,18.76
2022-08-06T19:19:53.747Z,18.76
2022-08-06T19:22:29.180Z,18.74
2022-08-06T19:24:57.297Z,18.73
2022-08-06T19:28:06.956Z,18.69
2022-08-06T19:30:41.015Z,18.64
2022-08-06T19:33:16.003Z,18.61
2022-08-06T19:36:07.231Z,18.59
2022-08-06T19:38:32.615Z,18.58
2022-08-06T19:41:00.884Z,18.50
2022-08-06T19:44:29.002Z,18.57
2022-08-06T19:46:29.905Z,18.56
2022-08-06T19:49:03.133Z,18.52
2022-08-06T19:52:02.280Z,18.49
2022-08-06T19:54:25.935Z,18.47
2022-08-06T19:56:55.138Z,18.47
2022-08-06T20:00:51.327Z,18.46
2022-08-06T20:02:15.700Z,18.44
2022-08-06T20:04:43.480Z,18.39
2022-08-06T20:07:12.012Z,18.29
2022-08-06T20:10:00.347Z,18.20
2022-08-06T20:12:33.961Z,18.14
2022-08-06T20:15:05.118Z,18.07
2022-08-06T20:17:46.201Z,18.12
2022-08-06T20:20:28.932Z,18.07
2022-08-06T20:23:00.494Z,18.02
2022-08-06T20:25:40.623Z,17.97
2022-08-06T20:29:07.597Z,17.92
2022-08-06T20:31:10.739Z,17.86
2022-08-06T20:33:38.220Z,17.84
2022-08-06T20:36:27.824Z,17.84
2022-08-06T20:38:55.539Z,17.84
2022-08-06T20:41:58.118Z,17.86
2022-08-06T20:44:09.446Z,17.85
2022-08-06T20:47:00.885Z,17.87
2022-08-06T20:49:48.099Z,17.88
2022-08-06T20:52:18.028Z,17.89
2022-08-06T20:54:51.939Z,17.90
2022-08-06T20:57:27.730Z,17.92
2022-08-06T20:59:57.989Z,17.92
2022-08-06T21:02:25.716Z,17.91
2022-08-06T21:05:16.043Z,17.90
2022-08-06T21:07:56.560Z,17.87
2022-08-06T21:10:30.419Z,17.83
2022-08-06T21:13:02.895Z,17.80
2022-08-06T21:15:53.826Z,17.78
2022-08-06T21:18:22.067Z,17.77
2022-08-06T21:20:53.952Z,17.76
2022-08-06T21:23:42.182Z,17.74
2022-08-06T21:26:15.465Z,17.67
2022-08-06T21:28:52.422Z,17.65
2022-08-06T21:31:24.258Z,17.63
2022-08-06T21:33:54.748Z,17.63
2022-08-06T21:36:25.795Z,17.65
2022-08-06T21:38:57.094Z,17.68
2022-08-06T21:41:49.896Z,17.70
2022-08-06T21:44:17.582Z,17.71
2022-08-06T21:46:50.033Z,17.72
2022-08-06T21:49:39.854Z,17.70
2022-08-06T21:52:05.015Z,17.72
2022-08-06T21:54:32.703Z,17.71
2022-08-06T21:57:11.773Z,17.73
2022-08-06T21:59:46.202Z,17.76
2022-08-06T22:02:28.037Z,17.79
2022-08-06T22:05:00.341Z,17.79
2022-08-06T22:08:06.222Z,17.76
2022-08-06T22:10:28.603Z,17.77
2022-08-06T22:13:12.607Z,17.77
2022-08-06T22:15:45.996Z,17.76
2022-08-06T22:18:28.003Z,17.75
2022-08-06T22:20:59.501Z,17.77
2022-08-06T22:23:28.835Z,17.79
2022-08-06T22:25:58.243Z,17.78
2022-08-06T22:28:34.284Z,17.77
2022-08-06T22:31:08.413Z,17.75
2022-08-06T22:33:58.372Z,17.72
2022-08-06T22:36:34.828Z,17.73
2022-08-06T22:39:04.491Z,17.71
2022-08-06T22:41:42.675Z,17.69
2022-08-06T22:44:34.223Z,17.67
2022-08-06T22:47:06.353Z,17.66
2022-08-06T22:50:01.257Z,17.65
2022-08-06T22:52:39.228Z,17.60
2022-08-06T22:55:11.645Z,17.59
2022-08-06T22:58:04.096Z,17.59
2022-08-06T23:00:36.739Z,17.56
2022-08-06T23:03:13.399Z,17.53
2022-08-06T23:05:44.291Z,17.48
2022-08-06T23:08:15.209Z,17.45
2022-08-06T23:10:48.265Z,17.43
2022-08-06T23:13:25.465Z,17.40
2022-08-06T23:15:58.505Z,17.40
2022-08-06T23:18:30.617Z,17.41
2022-08-06T23:21:20.353Z,17.40
2022-08-06T23:23:54.085Z,17.38
2022-08-06T23:26:32.056Z,17.30
2022-08-06T23:29:03.974Z,17.25
2022-08-06T23:31:33.975Z,17.22
2022-08-06T23:34:20.800Z,17.18
2022-08-06T23:36:54.168Z,17.15
2022-08-06T23:39:36.602Z,17.11
2022-08-06T23:42:08.764Z,17.04
2022-08-06T23:44:49.020Z,17.01
2022-08-06T23:47:54.247Z,16.94
2022-08-06T23:50:08.425Z,16.88
2022-08-06T23:52:42.072Z,16.83
2022-08-06T23:55:22.677Z,16.78
2022-08-06T23:57:57.559Z,16.71
